Portada
METAR-TAF:

METAR-TAF

Aeropuertos :

Aeropuerto de Córdoba

Córdoba, España

latitud: 37-51N, longitud: 004-51W, altitud: 90 m

Observación

El informe se hizo hace 33 minutos, a las 18:00 UTC
Viento 6 kt del este, variando entre este-noreste y sur-sureste
Temperatura 31°C
Humedad 16%
Presión 1017 hPa
Visibilidad 10 km o más
sin nubes por debajo de 1500 m y sin presencia de cumulonimbus.

METAR: LEBA 261800Z 10006KT 060V150 CAVOK 31/02 Q1017

Hora: 20:33 (18:33 UTC)

Pronóstico

El informe se hizo hace 4 horas y 33 minutos, a las 14:00 UTC
Pronóstico válido del 26 a las 15 UTC al 27 a las 15 UTC
Viento 5 kt del este-noreste
Visibilidad 10 km o más
sin nubes por debajo de 1500 m y sin presencia de cumulonimbus.
Probabilidad 30%
del 26 a las 19 UTC al 26 a las 22 UTC
Viento 10 kt del sur-suroeste

TAF: LEBA 261400Z 2615/2715 07005KT CAVOK TX35/2715Z TN12/2705Z PROB30 2619/2622 21010KT

Observaciones y pronósticos meteorológicos de más de 4000 aeropuertos (mensajes METAR y TAF).

Los puntos amarillos y rojos representan las estaciones disponibles.

Ponga el ratón en el punto deseado para ver el nombre de la estación.

Haga clic para ver las observaciones y los pronósticos meteorológicos.

Para cambiar el mapa : haga clic en los botones verdes con una cruz de color negro para hacer un zoom, en el botón verde con un guión para alejar o en las flechas verdes para mapas adyacentes.


METAR-TAF: